Time;durP1;ratioP1;P1;durP2;ratioP2;P2;SDS_P1;SDS_P2;PMS_P1;PMS_P2;Temp;Humidity;BMP_temperature;BMP_pressure;BME280_temperature;BME280_humidity;BME280_pressure;Samples;Min_cycle;Max_cycle;Signal;HPM_P1;HPM_P2
2022/06/20 00:00:08;;;;;;;10.93;5.90;;;;;;;21.47;100.00;97915.19;5082913;28;20023;-67
2022/06/20 00:02:40;;;;;;;12.35;6.55;;;;;;;21.48;100.00;97921.50;5085113;28;20470;-67
2022/06/20 00:05:05;;;;;;;10.35;6.20;;;;;;;21.47;100.00;97925.38;5083138;28;20374;-68
2022/06/20 00:07:30;;;;;;;15.77;6.78;;;;;;;21.40;100.00;97914.72;5072237;28;20089;-68
2022/06/20 00:09:56;;;;;;;12.73;5.90;;;;;;;21.56;100.00;97924.44;5060218;28;20036;-68
2022/06/20 00:12:25;;;;;;;9.38;6.03;;;;;;;21.56;100.00;97935.44;5078023;28;20119;-68
2022/06/20 00:15:00;;;;;;;10.50;5.68;;;;;;;21.56;100.00;97935.44;5075912;28;20366;-68
2022/06/20 00:17:26;;;;;;;10.68;5.95;;;;;;;21.58;100.00;97938.69;5079914;28;20093;-68
2022/06/20 00:19:52;;;;;;;11.85;6.22;;;;;;;21.57;100.00;97909.56;5079083;28;20024;-68
2022/06/20 00:22:17;;;;;;;11.70;6.38;;;;;;;21.67;100.00;97920.41;5067844;28;20035;-68
2022/06/20 00:24:43;;;;;;;9.02;6.20;;;;;;;21.79;100.00;97891.59;5080910;28;20637;-68
2022/06/20 00:27:09;;;;;;;12.85;6.78;;;;;;;21.77;100.00;97883.66;5080277;28;20116;-68
2022/06/20 00:29:35;;;;;;;9.57;5.82;;;;;;;21.90;100.00;97895.81;5082974;28;20481;-68
2022/06/20 00:32:01;;;;;;;10.15;5.78;;;;;;;21.81;100.00;97903.16;5064538;28;20039;-67
2022/06/20 00:34:27;;;;;;;10.70;6.45;;;;;;;21.55;100.00;97898.00;5077246;28;20030;-67
2022/06/20 00:36:52;;;;;;;9.60;6.05;;;;;;;21.54;100.00;97903.84;5077261;28;20062;-68
2022/06/20 00:39:20;;;;;;;10.50;5.85;;;;;;;21.40;100.00;97899.03;5080331;28;20028;-68
2022/06/20 00:41:45;;;;;;;12.85;6.32;;;;;;;21.35;100.00;97903.75;5077683;28;20028;-68
2022/06/20 00:44:15;;;;;;;9.00;6.35;;;;;;;21.12;100.00;97908.22;5076188;28;20039;-67
2022/06/20 00:46:51;;;;;;;11.40;6.50;;;;;;;20.98;100.00;97902.56;5079591;28;20020;-68
2022/06/20 00:49:39;;;;;;;15.85;6.53;;;;;;;21.02;100.00;97909.97;5077580;28;20112;-68
2022/06/20 00:52:19;;;;;;;9.73;6.32;;;;;;;20.88;100.00;97891.69;5074281;28;20397;-68
2022/06/20 00:54:59;;;;;;;12.05;6.53;;;;;;;20.88;100.00;97891.69;5077606;28;20036;-68
2022/06/20 00:57:28;;;;;;;9.23;6.30;;;;;;;20.95;100.00;97903.16;5077217;28;20042;-68
2022/06/20 01:00:00;;;;;;;10.88;7.32;;;;;;;20.82;100.00;97890.13;5068730;28;20019;-67
2022/06/20 01:02:32;;;;;;;9.20;6.18;;;;;;;20.89;100.00;97910.66;5092551;28;20027;-67
2022/06/20 01:05:01;;;;;;;13.13;7.53;;;;;;;20.91;100.00;97926.88;5077523;28;20958;-67
2022/06/20 01:07:37;;;;;;;11.43;6.85;;;;;;;20.83;100.00;97917.34;5079954;28;20032;-68
2022/06/20 01:10:04;;;;;;;12.88;6.80;;;;;;;20.90;100.00;97960.97;5079231;28;20036;-67
2022/06/20 01:12:37;;;;;;;12.93;7.40;;;;;;;20.89;100.00;97957.41;5074618;28;20040;-68
2022/06/20 01:15:16;;;;;;;15.90;7.30;;;;;;;20.87;100.00;97945.88;5079368;28;20178;-67
2022/06/20 01:17:41;;;;;;;12.82;6.55;;;;;;;21.00;100.00;97947.09;5080317;28;20089;-67
2022/06/20 01:20:20;;;;;;;15.30;6.57;;;;;;;20.92;100.00;97937.56;5058530;28;20024;-67
2022/06/20 01:22:46;;;;;;;12.95;6.43;;;;;;;21.14;100.00;97948.06;5082299;28;20461;-68
2022/06/20 01:25:43;;;;;;;14.15;6.88;;;;;;;21.13;100.00;97959.34;5078424;28;20035;-67
2022/06/20 01:28:12;;;;;;;15.88;7.15;;;;;;;21.02;100.00;97948.47;5063447;28;20119;-67
2022/06/20 01:30:41;;;;;;;18.05;7.45;;;;;;;20.96;100.00;97927.63;5083723;28;20055;-68
2022/06/20 01:33:07;;;;;;;18.50;6.97;;;;;;;21.11;100.00;97923.06;5067269;28;20584;-67
2022/06/20 01:38:19;;;;;;;13.35;7.03;;;;;;;21.02;100.00;97914.63;5084519;28;20891;-67
2022/06/20 01:43:32;;;;;;;12.50;7.20;;;;;;;21.07;100.00;97928.34;5080638;28;20035;-67
2022/06/20 01:46:00;;;;;;;15.68;6.93;;;;;;;21.18;100.00;97926.28;5070805;28;20039;-68
2022/06/20 01:48:31;;;;;;;16.30;7.32;;;;;;;20.99;100.00;97907.78;5065752;28;20024;-68
2022/06/20 01:50:58;;;;;;;13.88;6.97;;;;;;;20.81;100.00;97910.50;5082719;28;20035;-67
2022/06/20 01:53:28;;;;;;;13.25;7.25;;;;;;;20.84;100.00;97918.97;5077708;28;20028;-68
2022/06/20 01:55:55;;;;;;;16.27;7.60;;;;;;;20.78;100.00;97904.47;5080825;28;20509;-67
2022/06/20 01:58:36;;;;;;;17.75;8.27;;;;;;;20.58;100.00;97904.69;5079459;28;20031;-70
2022/06/20 02:01:03;;;;;;;13.93;7.47;;;;;;;20.65;100.00;97927.16;5083905;28;20134;-68
2022/06/20 02:03:31;;;;;;;14.57;7.80;;;;;;;20.62;100.00;97922.25;5082500;28;20033;-68
2022/06/20 02:05:58;;;;;;;15.00;7.20;;;;;;;20.43;100.00;97926.78;5080225;28;20078;-68
2022/06/20 02:08:24;;;;;;;16.30;7.70;;;;;;;20.49;100.00;97922.88;5083036;28;20024;-68
2022/06/20 02:11:05;;;;;;;16.63;7.80;;;;;;;20.40;100.00;97925.41;5077657;28;20032;-68
2022/06/20 02:13:37;;;;;;;15.27;7.28;;;;;;;20.21;100.00;97892.38;5069955;28;20035;-68
2022/06/20 02:16:06;;;;;;;14.05;7.93;;;;;;;20.32;100.00;97918.63;5069491;28;20050;-68
2022/06/20 02:18:35;;;;;;;17.10;8.02;;;;;;;20.28;100.00;97903.84;5079233;28;20123;-68
2022/06/20 02:21:04;;;;;;;18.45;7.32;;;;;;;20.12;100.00;97908.66;5082980;28;20051;-68
2022/06/20 02:23:32;;;;;;;12.52;7.50;;;;;;;20.20;100.00;97922.84;5076632;28;20028;-68
2022/06/20 02:26:01;;;;;;;17.58;7.40;;;;;;;20.12;100.00;97921.53;5082192;28;20103;-68
2022/06/20 02:28:33;;;;;;;12.63;7.57;;;;;;;19.99;100.00;97919.44;5076128;28;20036;-68
2022/06/20 02:30:59;;;;;;;15.98;7.95;;;;;;;19.91;100.00;97910.75;5063719;28;21915;-67
2022/06/20 02:33:28;;;;;;;13.23;8.07;;;;;;;19.93;100.00;97914.00;5065215;28;20024;-67
2022/06/20 02:35:56;;;;;;;15.88;8.45;;;;;;;19.82;100.00;97904.19;5081640;28;20031;-68
2022/06/20 02:38:21;;;;;;;15.80;7.78;;;;;;;19.83;100.00;97874.81;5077641;28;20039;-68
2022/06/20 02:40:52;;;;;;;18.13;8.32;;;;;;;19.95;100.00;97890.94;5085124;28;20397;-68
2022/06/20 02:43:19;;;;;;;16.15;7.50;;;;;;;19.93;100.00;97888.47;5086122;28;20044;-68
2022/06/20 02:45:45;;;;;;;15.50;8.02;;;;;;;19.85;100.00;97880.84;5085013;28;20477;-69
2022/06/20 02:48:13;;;;;;;16.08;7.60;;;;;;;20.08;100.00;97887.53;5082761;28;21067;-68
2022/06/20 02:50:46;;;;;;;15.32;8.38;;;;;;;20.00;100.00;97888.16;5069642;28;20118;-67
2022/06/20 02:53:40;;;;;;;17.05;7.65;;;;;;;20.09;100.00;97894.66;5082848;28;20115;-68
2022/06/20 02:56:08;;;;;;;13.57;7.78;;;;;;;20.04;100.00;97889.22;5079967;28;20032;-67
2022/06/20 02:58:38;;;;;;;12.10;7.50;;;;;;;19.99;100.00;97878.25;5084103;28;20024;-68
2022/06/20 03:01:26;;;;;;;13.05;7.93;;;;;;;20.09;100.00;97908.38;5078486;28;20544;-68
2022/06/20 03:03:55;;;;;;;18.83;7.90;;;;;;;20.22;100.00;97924.19;5081936;28;20024;-68
2022/06/20 03:06:29;;;;;;;13.32;7.93;;;;;;;20.23;100.00;97925.84;5085809;28;20027;-67
2022/06/20 03:08:55;;;;;;;23.40;8.43;;;;;;;20.10;100.00;97927.34;5084051;28;20040;-68
2022/06/20 03:11:22;;;;;;;18.10;7.70;;;;;;;20.13;100.00;97942.41;5064693;28;20024;-68
2022/06/20 03:13:49;;;;;;;17.55;8.63;;;;;;;20.00;100.00;97965.84;5083850;28;20055;-68
2022/06/20 03:16:15;;;;;;;14.77;7.43;;;;;;;20.04;100.00;98010.88;5081906;28;20103;-68
2022/06/20 03:18:50;;;;;;;11.30;7.45;;;;;;;20.02;100.00;98023.25;5086197;28;20189;-68
2022/06/20 03:21:23;;;;;;;11.50;7.75;;;;;;;20.01;100.00;98025.13;5080533;28;20474;-67
2022/06/20 03:23:50;;;;;;;14.25;7.57;;;;;;;20.05;100.00;98048.19;5062416;28;20031;-65
2022/06/20 03:26:20;;;;;;;14.18;8.35;;;;;;;20.20;100.00;98051.94;5076654;28;20020;-72
2022/06/20 03:28:46;;;;;;;20.92;8.10;;;;;;;20.28;100.00;98046.69;5056256;28;20024;-70
2022/06/20 03:31:12;;;;;;;17.27;7.65;;;;;;;20.43;100.00;98036.69;5055804;28;20085;-69
2022/06/20 03:33:39;;;;;;;15.43;8.13;;;;;;;20.50;100.00;98027.00;5078297;28;20039;-67
2022/06/20 03:36:23;;;;;;;22.15;7.93;;;;;;;20.72;100.00;98042.25;5086522;28;20032;-67
2022/06/20 03:38:50;;;;;;;22.05;7.78;;;;;;;20.80;100.00;98049.84;5081911;28;20097;-68
2022/06/20 03:41:21;;;;;;;16.13;7.78;;;;;;;20.80;100.00;98049.84;5077471;28;20028;-67
2022/06/20 03:43:59;;;;;;;20.80;7.40;;;;;;;20.64;100.00;98031.88;5083037;28;20024;-69
2022/06/20 03:46:33;;;;;;;16.77;8.40;;;;;;;20.77;100.00;98053.19;5084445;28;20077;-70
2022/06/20 03:49:05;;;;;;;16.20;7.30;;;;;;;20.78;100.00;98041.91;5075960;28;20043;-64
2022/06/20 03:51:47;;;;;;;15.35;6.80;;;;;;;20.74;100.00;98057.34;5082482;28;20477;-71
2022/06/20 03:54:29;;;;;;;15.77;7.00;;;;;;;20.64;100.00;98084.91;5062000;28;20058;-71
2022/06/20 03:57:23;;;;;;;13.07;6.30;;;;;;;20.61;100.00;98090.97;5076557;28;20122;-72
2022/06/20 03:59:54;;;;;;;16.08;6.82;;;;;;;20.59;100.00;98073.94;5083162;28;20068;-72
2022/06/20 04:02:37;;;;;;;16.58;6.68;;;;;;;20.58;100.00;98094.31;5079900;28;20016;-73
2022/06/20 04:05:10;;;;;;;16.05;6.47;;;;;;;20.41;100.00;98091.09;5083131;28;20172;-69
2022/06/20 04:07:44;;;;;;;19.42;7.45;;;;;;;20.45;100.00;98092.16;5077143;28;20512;-64
2022/06/20 04:13:31;;;;;;;15.30;7.18;;;;;;;20.34;100.00;98064.75;5082674;28;20515;-73
2022/06/20 04:16:03;;;;;;;18.35;6.38;;;;;;;20.43;100.00;98073.22;5079467;28;20048;-71
2022/06/20 04:18:44;;;;;;;13.35;6.22;;;;;;;20.56;100.00;98093.75;5059743;28;20019;-71
2022/06/20 04:21:29;;;;;;;20.27;6.20;;;;;;;20.67;100.00;98092.59;5076596;28;20024;-71
2022/06/20 04:24:36;;;;;;;15.93;6.22;;;;;;;20.74;100.00;98101.31;5071422;28;20023;-65
2022/06/20 04:27:17;;;;;;;17.48;6.45;;;;;;;20.68;100.00;98105.22;5018974;28;20045;-64
2022/06/20 04:29:49;;;;;;;12.85;5.75;;;;;;;20.66;100.00;98107.44;5075212;28;20036;-65
2022/06/20 04:32:30;;;;;;;22.40;6.22;;;;;;;20.62;100.00;98114.63;5063290;28;20058;-65
2022/06/20 04:35:04;;;;;;;12.45;5.85;;;;;;;20.64;100.00;98087.66;5077187;28;20107;-64
2022/06/20 04:37:38;;;;;;;18.95;5.60;;;;;;;20.62;100.00;98067.91;5074356;28;20436;-66
2022/06/20 04:40:17;;;;;;;23.95;5.32;;;;;;;20.63;100.00;98079.72;5072745;28;20060;-64
2022/06/20 04:42:46;;;;;;;8.68;4.93;;;;;;;20.71;100.00;98084.59;5078995;28;20618;-65
2022/06/20 04:45:24;;;;;;;15.15;5.53;;;;;;;20.73;100.00;98071.38;5076948;28;20084;-63
2022/06/20 04:47:54;;;;;;;14.07;5.27;;;;;;;20.77;100.00;98076.00;5077486;28;20052;-65
2022/06/20 04:50:23;;;;;;;12.80;4.97;;;;;;;20.64;100.00;98123.38;5078290;28;20020;-70
2022/06/20 04:52:51;;;;;;;17.17;5.43;;;;;;;20.43;100.00;98135.59;5078324;28;20069;-70
2022/06/20 04:55:22;;;;;;;11.95;5.03;;;;;;;20.70;100.00;98155.25;5079193;28;20285;-65
2022/06/20 04:57:49;;;;;;;15.80;5.65;;;;;;;20.61;100.00;98154.19;5078846;28;20385;-66
2022/06/20 05:00:25;;;;;;;13.30;5.15;;;;;;;20.60;100.00;98133.31;5079872;28;20024;-65
2022/06/20 05:02:53;;;;;;;15.65;5.70;;;;;;;20.49;100.00;98105.06;5078753;28;20772;-65
2022/06/20 05:05:26;;;;;;;20.33;6.53;;;;;;;20.33;100.00;98120.81;5085729;28;20038;-65
2022/06/20 05:07:53;;;;;;;15.73;6.18;;;;;;;20.36;100.00;98117.50;5073160;28;20070;-67
2022/06/20 05:10:35;;;;;;;13.38;5.90;;;;;;;20.50;100.00;98108.63;5081898;28;20111;-69
2022/06/20 05:13:13;;;;;;;11.70;5.22;;;;;;;20.69;100.00;98123.34;5078361;28;20093;-68
2022/06/20 05:15:38;;;;;;;11.77;5.80;;;;;;;20.77;100.00;98132.91;5081082;28;20032;-68
2022/06/20 05:18:15;;;;;;;12.82;5.78;;;;;;;20.81;100.00;98138.69;5079175;28;20394;-68
2022/06/20 05:20:42;;;;;;;12.55;6.18;;;;;;;20.83;100.00;98134.53;5061707;28;20027;-67
2022/06/20 05:23:37;;;;;;;12.00;6.40;;;;;;;20.89;100.00;98149.06;5077450;28;20035;-66
2022/06/20 05:26:06;;;;;;;14.00;5.93;;;;;;;20.72;100.00;98131.03;5071992;28;20035;-67
2022/06/20 05:28:33;;;;;;;15.63;5.10;;;;;;;20.74;100.00;98123.31;5081185;28;20032;-68
2022/06/20 05:31:00;;;;;;;13.82;6.38;;;;;;;20.81;100.00;98150.50;5076308;28;20028;-68
2022/06/20 05:33:41;;;;;;;12.80;5.93;;;;;;;21.04;100.00;98151.69;5077369;28;20038;-67
2022/06/20 05:36:09;;;;;;;15.88;5.97;;;;;;;21.17;100.00;98114.47;5082300;28;20624;-68
2022/06/20 05:38:43;;;;;;;17.20;5.70;;;;;;;21.29;100.00;98108.56;5082577;28;20540;-67
2022/06/20 05:41:16;;;;;;;18.02;6.18;;;;;;;21.43;100.00;98139.78;5079160;28;20622;-66
2022/06/20 05:43:42;;;;;;;10.07;6.20;;;;;;;21.44;100.00;98130.44;5054194;28;20035;-66
2022/06/20 05:46:18;;;;;;;14.50;5.95;;;;;;;21.26;100.00;98139.41;5066850;28;20454;-66
2022/06/20 05:48:55;;;;;;;12.35;6.10;;;;;;;21.23;100.00;98147.13;5074616;28;20016;-67
2022/06/20 05:51:25;;;;;;;13.00;5.85;;;;;;;21.19;100.00;98162.53;5076232;28;20077;-68
2022/06/20 05:54:04;;;;;;;12.77;5.50;;;;;;;21.49;100.00;98162.59;5080691;28;20728;-67
2022/06/20 05:56:35;;;;;;;12.90;6.13;;;;;;;21.44;100.00;98158.78;5081455;28;20032;-66
2022/06/20 05:59:01;;;;;;;14.32;6.20;;;;;;;21.49;100.00;98160.66;5076077;28;20064;-67
2022/06/20 06:01:32;;;;;;;10.65;5.22;;;;;;;21.53;100.00;98186.47;5081902;28;20028;-65
2022/06/20 06:04:19;;;;;;;13.20;5.38;;;;;;;21.00;100.00;98178.13;5080854;28;20032;-67
2022/06/20 06:06:49;;;;;;;10.52;5.18;;;;;;;21.28;100.00;98197.72;5079145;28;20024;-66
2022/06/20 06:09:26;;;;;;;13.98;5.60;;;;;;;21.20;100.00;98190.91;5077225;28;20519;-65
2022/06/20 06:12:03;;;;;;;13.55;5.35;;;;;;;21.47;100.00;98195.09;5080209;28;20032;-67
2022/06/20 06:14:39;;;;;;;10.55;5.05;;;;;;;21.61;100.00;98202.41;5083164;28;20055;-68
2022/06/20 06:17:16;;;;;;;11.73;4.43;;;;;;;21.65;100.00;98197.13;5080267;28;21002;-67
2022/06/20 06:19:48;;;;;;;17.70;5.25;;;;;;;21.91;100.00;98194.91;5080462;28;20032;-67
2022/06/20 06:22:25;;;;;;;16.23;4.70;;;;;;;21.81;100.00;98189.53;5078868;28;20526;-74
2022/06/20 06:24:59;;;;;;;12.13;3.65;;;;;;;21.65;100.00;98170.41;5079336;28;20107;-73
2022/06/20 06:27:28;;;;;;;13.65;4.32;;;;;;;21.80;100.00;98168.63;5075344;28;20359;-73
2022/06/20 06:30:00;;;;;;;9.40;4.13;;;;;;;21.93;100.00;98180.84;5086444;28;20100;-68
2022/06/20 06:32:42;;;;;;;12.43;4.50;;;;;;;22.07;100.00;98168.03;5079560;28;20044;-69
2022/06/20 06:35:10;;;;;;;19.48;5.13;;;;;;;22.01;100.00;98167.25;5079720;28;20050;-69
2022/06/20 06:37:56;;;;;;;17.85;4.32;;;;;;;22.09;100.00;98169.38;5075660;28;20115;-70
2022/06/20 06:40:26;;;;;;;9.52;4.18;;;;;;;22.23;100.00;98161.22;5080549;28;20413;-69
2022/06/20 06:42:56;;;;;;;12.73;4.35;;;;;;;22.39;100.00;98170.13;5079220;28;20032;-70
2022/06/20 06:45:25;;;;;;;8.45;4.15;;;;;;;22.69;100.00;98176.34;5086802;28;20032;-69
2022/06/20 06:48:10;;;;;;;12.15;4.63;;;;;;;22.69;100.00;98181.84;5081712;28;20389;-70
2022/06/20 06:50:54;;;;;;;11.80;3.85;;;;;;;22.93;100.00;98179.00;5080549;28;20028;-71
2022/06/20 06:53:37;;;;;;;8.30;4.05;;;;;;;23.63;97.88;98172.59;5074911;28;20501;-71
2022/06/20 06:56:16;;;;;;;10.23;4.10;;;;;;;24.38;88.81;98165.88;5085503;28;20031;-71
2022/06/20 06:58:59;;;;;;;10.55;3.65;;;;;;;25.03;81.94;98167.47;5080682;28;20025;-70
2022/06/20 07:01:30;;;;;;;14.85;5.00;;;;;;;25.40;78.29;98168.25;5076836;28;20039;-69
2022/06/20 07:04:03;;;;;;;15.48;4.15;;;;;;;25.44;75.92;98169.25;5084563;28;20032;-71
2022/06/20 07:06:40;;;;;;;10.82;3.40;;;;;;;26.66;68.68;98175.28;5083429;28;20035;-69
2022/06/20 07:09:24;;;;;;;10.18;4.45;;;;;;;28.03;59.12;98182.97;5083614;28;20028;-70
2022/06/20 07:11:59;;;;;;;14.80;3.92;;;;;;;29.15;53.86;98185.44;5078620;28;20020;-65
2022/06/20 07:14:25;;;;;;;11.15;3.78;;;;;;;29.41;52.22;98182.41;5076633;28;20040;-65
2022/06/20 07:17:07;;;;;;;15.45;3.58;;;;;;;31.31;46.76;98183.00;5080642;28;20027;-68
2022/06/20 07:19:37;;;;;;;12.50;3.78;;;;;;;29.95;47.98;98175.94;5079368;28;20035;-66
2022/06/20 07:22:03;;;;;;;10.48;3.72;;;;;;;32.12;43.37;98213.59;5075057;28;20084;-67
2022/06/20 07:24:31;;;;;;;7.57;2.75;;;;;;;33.44;40.91;98210.28;5082121;28;20110;-71
2022/06/20 07:27:21;;;;;;;10.90;3.53;;;;;;;33.60;39.76;98211.03;5078500;28;20480;-68
2022/06/20 07:30:02;;;;;;;16.77;3.53;;;;;;;32.45;41.69;98211.25;5075286;28;20149;-68
2022/06/20 07:32:38;;;;;;;9.00;3.33;;;;;;;33.18;40.48;98203.34;5085362;28;20028;-68
2022/06/20 07:35:13;;;;;;;12.10;3.05;;;;;;;34.91;37.31;98208.84;5082907;28;20028;-68
2022/06/20 07:38:07;;;;;;;10.85;2.88;;;;;;;35.16;36.27;98214.03;5080189;28;20035;-73
2022/06/20 07:40:54;;;;;;;8.98;2.80;;;;;;;34.99;36.72;98215.41;5081412;28;20025;-74
2022/06/20 07:43:30;;;;;;;11.35;2.90;;;;;;;34.81;36.75;98203.09;5089738;28;20044;-73
2022/06/20 07:46:02;;;;;;;8.52;2.80;;;;;;;35.67;35.77;98204.22;5084738;28;20070;-74
2022/06/20 07:48:36;;;;;;;9.55;2.80;;;;;;;35.52;36.59;98211.66;5082797;28;20445;-73
2022/06/20 07:51:42;;;;;;;18.40;3.28;;;;;;;34.60;37.12;98212.00;5086814;28;20028;-73
2022/06/20 07:54:43;;;;;;;15.80;3.22;;;;;;;36.01;35.20;98215.44;5069443;28;20043;-75
2022/06/20 07:57:22;;;;;;;10.07;2.80;;;;;;;36.61;34.15;98201.91;5069419;28;20032;-75
2022/06/20 07:59:57;;;;;;;8.55;3.15;;;;;;;35.95;35.54;98218.59;5082851;28;20438;-74
2022/06/20 08:02:38;;;;;;;16.92;3.33;;;;;;;36.36;34.66;98214.97;5088310;28;20123;-73
2022/06/20 08:05:06;;;;;;;8.70;3.13;;;;;;;37.31;33.62;98232.13;5069290;28;20020;-68
2022/06/20 08:07:41;;;;;;;6.75;2.97;;;;;;;37.38;33.43;98237.81;5081211;28;20043;-68
2022/06/20 08:10:26;;;;;;;6.95;2.53;;;;;;;37.39;33.69;98239.41;5077830;28;20040;-68
2022/06/20 08:13:09;;;;;;;8.82;3.40;;;;;;;36.54;34.85;98240.47;5082847;28;20059;-73
2022/06/20 08:15:50;;;;;;;7.07;3.42;;;;;;;37.55;33.25;98231.47;5072853;28;20606;-80
2022/06/20 08:18:15;;;;;;;6.07;2.90;;;;;;;37.56;32.77;98226.63;5089225;28;20509;-73
2022/06/20 08:20:46;;;;;;;6.57;3.00;;;;;;;37.12;33.18;98234.06;5076259;28;20080;-74
2022/06/20 08:23:19;;;;;;;7.60;3.25;;;;;;;37.47;33.05;98238.28;5083585;28;20032;-72
2022/06/20 08:25:52;;;;;;;10.77;3.00;;;;;;;37.48;33.30;98231.41;5076528;28;20105;-69
2022/06/20 08:28:21;;;;;;;8.75;3.10;;;;;;;37.83;33.05;98219.44;5080208;28;20118;-73
2022/06/20 08:30:56;;;;;;;10.55;3.10;;;;;;;37.83;33.49;98229.94;5061100;28;20579;-68
2022/06/20 08:33:42;;;;;;;11.15;3.30;;;;;;;37.26;33.92;98211.56;5085089;28;20027;-76
2022/06/20 08:36:13;;;;;;;10.55;3.00;;;;;;;38.61;32.01;98205.81;5087406;28;20020;-71
2022/06/20 08:39:00;;;;;;;10.18;3.10;;;;;;;38.01;32.04;98221.53;5084088;28;20084;-76
2022/06/20 08:41:56;;;;;;;7.55;2.80;;;;;;;38.44;31.59;98219.56;5061477;28;20028;-76
2022/06/20 08:44:34;;;;;;;6.97;2.80;;;;;;;37.93;31.47;98221.47;5077574;28;20036;-70
2022/06/20 08:47:34;;;;;;;9.77;3.00;;;;;;;38.37;30.80;98202.56;5086225;28;20073;-76
2022/06/20 08:50:37;;;;;;;13.55;2.90;;;;;;;39.95;29.11;98211.41;5047645;28;20039;-69
2022/06/20 08:53:18;;;;;;;6.38;2.75;;;;;;;39.88;28.64;98215.13;5078464;28;20158;-69
2022/06/20 08:55:44;;;;;;;9.73;2.83;;;;;;;40.20;28.76;98218.94;5078328;28;20028;-69
2022/06/20 08:58:31;;;;;;;6.07;2.53;;;;;;;38.91;29.43;98214.69;5080552;28;20043;-69
2022/06/20 09:01:12;;;;;;;7.93;2.97;;;;;;;39.31;30.07;98217.38;5076924;28;20309;-68
2022/06/20 09:03:47;;;;;;;9.40;2.95;;;;;;;39.42;29.24;98215.34;5081636;28;20478;-68
2022/06/20 09:06:45;;;;;;;8.00;2.45;;;;;;;40.39;28.12;98209.91;5077888;28;20028;-76
2022/06/20 09:09:48;;;;;;;8.45;2.55;;;;;;;41.29;26.90;98235.38;5071890;28;20118;-74
2022/06/20 09:12:43;;;;;;;11.55;3.33;;;;;;;41.54;26.65;98232.25;5065284;28;20198;-73
2022/06/20 09:15:19;;;;;;;7.40;2.67;;;;;;;39.98;28.96;98249.44;5080434;28;20032;-73
2022/06/20 09:17:45;;;;;;;8.55;2.95;;;;;;;40.74;27.33;98240.00;5078258;28;20036;-72
2022/06/20 09:20:32;;;;;;;13.13;2.93;;;;;;;41.04;27.30;98240.50;5064207;28;20024;-73
2022/06/20 09:23:29;;;;;;;7.80;2.67;;;;;;;37.60;31.29;98245.22;5081797;28;20028;-72
2022/06/20 09:25:58;;;;;;;;;;;;;;;36.43;33.58;98241.19;5025820;28;20365;-73
2022/06/20 09:28:48;;;;;;;10.13;2.95;;;;;;;35.77;34.44;98238.13;5071769;28;20513;-70
2022/06/20 09:31:35;;;;;;;9.02;2.72;;;;;;;34.82;35.20;98239.25;5075907;28;20056;-71
2022/06/20 09:34:24;;;;;;;8.57;2.90;;;;;;;35.03;35.67;98244.38;5064784;28;20071;-71
2022/06/20 09:36:49;;;;;;;9.02;3.05;;;;;;;34.13;36.69;98252.53;5075863;28;20031;-70
2022/06/20 09:39:29;;;;;;;9.77;2.97;;;;;;;32.64;38.39;98258.13;5076641;28;20413;-72
2022/06/20 09:42:07;;;;;;;6.95;3.00;;;;;;;32.14;39.88;98264.44;5080661;28;20024;-71
2022/06/20 09:44:55;;;;;;;9.45;3.20;;;;;;;32.01;40.11;98264.50;5085994;28;20032;-71
2022/06/20 09:47:46;;;;;;;10.65;3.60;;;;;;;31.87;41.40;98250.91;5083122;28;20070;-71
2022/06/20 09:50:49;;;;;;;6.72;3.83;;;;;;;32.56;40.11;98255.53;5024343;28;20563;-71
2022/06/20 09:53:51;;;;;;;8.65;3.17;;;;;;;32.34;40.40;98260.56;5078519;28;20406;-71
2022/06/20 09:56:27;;;;;;;9.88;3.58;;;;;;;31.67;41.24;98266.75;5086593;28;20020;-71
2022/06/20 09:59:17;;;;;;;6.57;3.00;;;;;;;30.70;42.79;98259.38;5084023;28;20036;-71
2022/06/20 10:01:50;;;;;;;13.30;3.53;;;;;;;30.43;44.84;98270.06;5080184;28;20027;-71
2022/06/20 10:04:38;;;;;;;10.23;2.92;;;;;;;30.39;44.64;98252.38;5086265;28;20493;-71
2022/06/20 10:07:22;;;;;;;;;;;;;;;31.38;43.50;98267.91;5082772;28;20032;-70
2022/06/20 10:10:06;;;;;;;7.32;2.83;;;;;;;33.97;38.66;98256.22;5062320;28;20406;-71
2022/06/20 10:12:44;;;;;;;9.88;3.28;;;;;;;34.49;37.06;98262.38;5081768;28;20052;-71
2022/06/20 10:15:24;;;;;;;10.82;3.55;;;;;;;34.64;37.30;98255.03;5086184;28;20397;-71
2022/06/20 10:18:02;;;;;;;7.75;3.35;;;;;;;34.97;36.62;98262.75;5080080;28;20020;-70
2022/06/20 10:20:50;;;;;;;7.87;3.07;;;;;;;36.26;33.96;98257.94;5082383;28;20476;-71
2022/06/20 10:23:31;;;;;;;11.13;3.42;;;;;;;35.90;34.42;98257.56;5082296;28;20024;-71
2022/06/20 10:26:12;;;;;;;10.85;2.70;;;;;;;36.25;33.73;98259.94;5082533;28;20036;-70
2022/06/20 10:29:28;;;;;;;8.90;3.28;;;;;;;36.36;34.04;98260.03;5081495;28;20035;-70
2022/06/20 10:32:19;;;;;;;9.73;3.38;;;;;;;36.11;33.84;98263.44;5040346;28;20040;-71
2022/06/20 10:35:03;;;;;;;14.57;4.10;;;;;;;35.65;34.68;98265.72;5081932;28;20027;-71
2022/06/20 10:37:37;;;;;;;8.20;3.45;;;;;;;34.49;37.08;98270.81;5080532;28;20524;-71
2022/06/20 10:40:31;;;;;;;9.00;3.50;;;;;;;33.35;38.06;98275.81;5084645;28;20093;-71
2022/06/20 10:43:11;;;;;;;11.50;3.70;;;;;;;31.85;40.24;98267.25;5082301;28;20414;-71
2022/06/20 10:45:46;;;;;;;7.25;3.35;;;;;;;31.44;42.17;98274.91;5081180;28;20036;-71
2022/06/20 10:48:24;;;;;;;6.15;2.97;;;;;;;31.49;42.23;98276.59;5076231;28;20036;-69
2022/06/20 10:50:55;;;;;;;7.70;3.03;;;;;;;30.88;43.15;98291.50;5082174;28;20016;-70
2022/06/20 10:53:56;;;;;;;10.93;3.50;;;;;;;29.85;45.07;98284.00;5065824;28;20028;-70
2022/06/20 10:56:26;;;;;;;9.98;3.72;;;;;;;29.61;46.53;98281.09;5031437;28;20044;-71
2022/06/20 10:59:29;;;;;;;8.02;3.40;;;;;;;29.51;47.23;98281.53;5078334;28;20032;-70
2022/06/20 11:02:09;;;;;;;10.43;3.25;;;;;;;30.82;44.37;98275.34;5078276;28;20535;-71
2022/06/20 11:05:00;;;;;;;5.78;2.92;;;;;;;34.05;38.31;98280.44;5078914;28;20121;-69
2022/06/20 11:07:57;;;;;;;8.85;2.75;;;;;;;35.94;34.98;98281.72;5078151;28;20024;-71
2022/06/20 11:10:30;;;;;;;7.93;2.78;;;;;;;35.96;35.07;98287.78;5083188;28;20039;-71
2022/06/20 11:13:14;;;;;;;6.43;2.42;;;;;;;36.03;33.95;98277.81;5079915;28;20024;-71
2022/06/20 11:16:06;;;;;;;6.07;2.42;;;;;;;34.89;35.27;98294.75;5065025;28;20028;-71
2022/06/20 11:18:55;;;;;;;7.43;2.97;;;;;;;32.74;38.28;98298.78;5075603;28;20024;-71
2022/06/20 11:21:39;;;;;;;5.53;2.55;;;;;;;30.41;43.49;98316.25;5080924;28;20063;-71
2022/06/20 11:24:27;;;;;;;10.45;3.20;;;;;;;29.66;45.72;98315.19;5109501;22;20101;-64
2022/06/20 11:27:17;;;;;;;9.20;3.67;;;;;;;29.20;49.21;98324.53;5071143;28;20028;-63
2022/06/20 11:30:01;;;;;;;10.18;3.30;;;;;;;28.36;51.71;98321.47;5085939;28;20028;-63
2022/06/20 11:32:42;;;;;;;7.70;3.15;;;;;;;27.79;55.57;98332.84;5063693;28;20042;-63
2022/06/20 11:35:24;;;;;;;8.88;3.65;;;;;;;27.50;56.68;98337.09;5047495;28;20032;-63
2022/06/20 11:38:44;;;;;;;10.73;3.80;;;;;;;27.61;59.01;98349.50;5053573;28;20110;-64
2022/06/20 11:41:10;;;;;;;9.98;3.38;;;;;;;27.84;54.62;98352.97;5065584;28;20085;-63
2022/06/20 11:43:36;;;;;;;7.07;2.88;;;;;;;27.75;54.41;98358.53;5070665;28;20030;-63
2022/06/20 11:46:54;;;;;;;7.72;3.00;;;;;;;27.63;55.85;98366.69;5064056;28;20028;-63
2022/06/20 11:49:53;;;;;;;7.60;3.10;;;;;;;27.44;54.67;98367.00;4966309;28;20022;-64
2022/06/20 11:52:27;;;;;;;16.42;3.20;;;;;;;27.45;53.79;98373.38;5083749;28;20028;-64
2022/06/20 11:55:18;;;;;;;8.40;2.80;;;;;;;27.44;53.35;98380.09;5070447;28;20016;-64
2022/06/20 11:58:03;;;;;;;8.07;2.47;;;;;;;27.07;55.24;98387.81;5066431;28;20023;-64
2022/06/20 12:00:57;;;;;;;9.02;2.90;;;;;;;27.00;54.84;98387.47;5069221;28;20344;-63
2022/06/20 12:03:44;;;;;;;7.47;2.38;;;;;;;26.68;55.12;98392.25;5065679;28;20493;-64
2022/06/20 12:06:21;;;;;;;6.78;2.30;;;;;;;26.77;54.59;98378.41;5063598;28;20055;-63
2022/06/20 12:09:02;;;;;;;9.32;2.40;;;;;;;26.68;56.16;98386.69;5073215;28;20028;-63
2022/06/20 12:11:30;;;;;;;7.78;2.30;;;;;;;26.79;55.82;98388.03;5069283;28;20032;-64
2022/06/20 12:14:21;;;;;;;12.73;3.05;;;;;;;26.54;56.51;98400.66;5069462;28;20032;-64
2022/06/20 12:17:13;;;;;;;9.60;2.72;;;;;;;26.27;58.06;98398.84;5081108;28;20036;-64